VOZ198 YMML-YMHB
Flight info
| Callsign | VOZ198 |
|---|---|
| Flight time | N/A |
| Altitude | 33000 |
| Route | DCT ML H169 IRSOM V33 TASUM DCT |
| Aircraft | B38M/M-SDE1FGHILORVWXY/HB1 |
Departure
| Time | 2026-05-06 16:59 |
|---|---|
| Airport | Melbourne Airport (YMML) |
Arrival
| Time | N/A |
|---|---|
| Airport | Hobart International Airport (YMHB) |
| Time | Latitude | Longitude | Altitude | Speed | Heading |
|---|---|---|---|---|---|
| 2026-05-06 16:46 | -37.67257 | 144.84611 | 388 ft | 0 kts | 172° |
| 2026-05-06 16:51 | -37.67258 | 144.84611 | 388 ft | 2 kts | 172° |
| 2026-05-06 16:51 | -37.67258 | 144.84614 | 388 ft | 4 kts | 97° |
| 2026-05-06 16:52 | -37.67250 | 144.84644 | 388 ft | 4 kts | 61° |
| 2026-05-06 16:52 | -37.67234 | 144.84671 | 389 ft | 4 kts | 48° |
| 2026-05-06 16:52 | -37.67214 | 144.84692 | 390 ft | 4 kts | 28° |
| 2026-05-06 16:52 | -37.67200 | 144.84684 | 390 ft | 4 kts | 304° |
| 2026-05-06 16:53 | -37.67197 | 144.84653 | 390 ft | 4 kts | 267° |
| 2026-05-06 16:53 | -37.67198 | 144.84641 | 389 ft | 1 kts | 262° |
| 2026-05-06 16:53 | -37.67197 | 144.84644 | 390 ft | 0 kts | 262° |
| 2026-05-06 16:54 | -37.67199 | 144.84632 | 389 ft | 5 kts | 262° |
| 2026-05-06 16:55 | -37.67210 | 144.84530 | 388 ft | 16 kts | 262° |
| 2026-05-06 16:55 | -37.67205 | 144.84376 | 386 ft | 19 kts | 275° |
| 2026-05-06 16:55 | -37.67132 | 144.84255 | 385 ft | 20 kts | 352° |
| 2026-05-06 16:55 | -37.66993 | 144.84231 | 388 ft | 21 kts | 352° |
| 2026-05-06 16:56 | -37.66833 | 144.84200 | 393 ft | 27 kts | 351° |
| 2026-05-06 16:56 | -37.66703 | 144.84218 | 396 ft | 15 kts | 68° |
| 2026-05-06 16:56 | -37.66685 | 144.84355 | 400 ft | 20 kts | 81° |
| 2026-05-06 16:56 | -37.66655 | 144.84574 | 402 ft | 28 kts | 82° |
| 2026-05-06 16:57 | -37.66611 | 144.84792 | 404 ft | 20 kts | 41° |
| 2026-05-06 16:57 | -37.66484 | 144.84798 | 410 ft | 17 kts | 24° |
| 2026-05-06 16:57 | -37.66435 | 144.84928 | 412 ft | 18 kts | 52° |
| 2026-05-06 16:57 | -37.66354 | 144.84916 | 412 ft | 12 kts | 322° |
| 2026-05-06 16:58 | -37.66280 | 144.84843 | 410 ft | 17 kts | 321° |
| 2026-05-06 16:58 | -37.66223 | 144.84684 | 416 ft | 26 kts | 272° |
| 2026-05-06 16:58 | -37.66193 | 144.84176 | 414 ft | 103 kts | 273° |
| 2026-05-06 16:58 | -37.66137 | 144.83031 | 879 ft | 142 kts | 273° |
| 2026-05-06 16:59 | -37.66061 | 144.81813 | 2223 ft | 137 kts | 269° |
| 2026-05-06 16:59 | -37.65984 | 144.80524 | 3071 ft | 159 kts | 268° |
| 2026-05-06 16:59 | -37.65903 | 144.79008 | 3777 ft | 186 kts | 266° |
| 2026-05-06 16:59 | -37.66172 | 144.77381 | 4627 ft | 198 kts | 237° |
| 2026-05-06 17:00 | -37.67151 | 144.76084 | 5500 ft | 216 kts | 212° |
| 2026-05-06 17:00 | -37.68649 | 144.75543 | 6464 ft | 237 kts | 184° |
| 2026-05-06 17:00 | -37.70261 | 144.76122 | 7695 ft | 251 kts | 160° |
| 2026-05-06 17:00 | -37.71838 | 144.77076 | 8740 ft | 259 kts | 162° |
| 2026-05-06 17:01 | -37.73506 | 144.78016 | 9887 ft | 265 kts | 162° |
| 2026-05-06 17:01 | -37.75219 | 144.78971 | 10824 ft | 276 kts | 162° |
| 2026-05-06 17:01 | -37.77051 | 144.79965 | 11463 ft | 296 kts | 162° |
| 2026-05-06 17:01 | -37.79013 | 144.81020 | 12027 ft | 317 kts | 162° |
| 2026-05-06 17:02 | -37.81111 | 144.82143 | 12512 ft | 338 kts | 162° |
| 2026-05-06 17:02 | -37.83336 | 144.83334 | 12985 ft | 356 kts | 161° |
| 2026-05-06 17:02 | -37.85655 | 144.84584 | 13630 ft | 367 kts | 161° |
| 2026-05-06 17:02 | -37.88011 | 144.85873 | 14481 ft | 370 kts | 160° |
| 2026-05-06 17:03 | -37.90387 | 144.87190 | 15231 ft | 376 kts | 160° |
| 2026-05-06 17:03 | -37.92796 | 144.88533 | 15994 ft | 380 kts | 160° |
| 2026-05-06 17:03 | -37.95224 | 144.89891 | 16743 ft | 384 kts | 160° |
| 2026-05-06 17:03 | -37.97680 | 144.91266 | 17508 ft | 387 kts | 160° |
| 2026-05-06 17:04 | -38.00154 | 144.92652 | 18287 ft | 390 kts | 159° |
| 2026-05-06 17:04 | -38.02654 | 144.94060 | 18878 ft | 396 kts | 159° |
| 2026-05-06 17:04 | -38.05184 | 144.95480 | 19471 ft | 400 kts | 160° |
| 2026-05-06 17:04 | -38.07743 | 144.96923 | 20013 ft | 405 kts | 160° |
| 2026-05-06 17:05 | -38.10338 | 144.98383 | 20593 ft | 409 kts | 160° |
| 2026-05-06 17:05 | -38.12953 | 144.99862 | 21147 ft | 414 kts | 160° |
| 2026-05-06 17:05 | -38.15604 | 145.01359 | 21689 ft | 420 kts | 160° |
| 2026-05-06 17:05 | -38.18260 | 145.02862 | 22066 ft | 428 kts | 160° |
| 2026-05-06 17:06 | -38.21004 | 145.04411 | 22625 ft | 432 kts | 160° |
| 2026-05-06 17:06 | -38.23755 | 145.05971 | 23215 ft | 436 kts | 160° |
| 2026-05-06 17:06 | -38.26545 | 145.07551 | 23703 ft | 441 kts | 160° |
| 2026-05-06 17:06 | -38.29356 | 145.09146 | 24128 ft | 444 kts | 160° |
| 2026-05-06 17:07 | -38.32186 | 145.10753 | 24565 ft | 448 kts | 160° |
| 2026-05-06 17:07 | -38.35042 | 145.12378 | 25005 ft | 451 kts | 160° |
| 2026-05-06 17:07 | -38.37918 | 145.14015 | 25416 ft | 454 kts | 160° |
| 2026-05-06 17:07 | -38.40813 | 145.15664 | 25822 ft | 458 kts | 160° |
| 2026-05-06 17:08 | -38.43733 | 145.17328 | 26231 ft | 461 kts | 160° |
| 2026-05-06 17:08 | -38.46667 | 145.19004 | 26706 ft | 462 kts | 160° |
| 2026-05-06 17:08 | -38.49606 | 145.20682 | 27096 ft | 465 kts | 161° |
| 2026-05-06 17:08 | -38.52649 | 145.22070 | 27453 ft | 465 kts | 166° |
| 2026-05-06 17:09 | -38.55731 | 145.23369 | 27817 ft | 469 kts | 166° |
| 2026-05-06 17:09 | -38.58835 | 145.24711 | 28187 ft | 472 kts | 165° |
| 2026-05-06 17:09 | -38.61959 | 145.26081 | 28527 ft | 475 kts | 165° |
| 2026-05-06 17:09 | -38.65091 | 145.27464 | 28806 ft | 480 kts | 165° |
| 2026-05-06 17:10 | -38.68252 | 145.28862 | 29168 ft | 481 kts | 165° |
| 2026-05-06 17:10 | -38.71415 | 145.30263 | 29638 ft | 480 kts | 165° |
| 2026-05-06 17:10 | -38.74570 | 145.31662 | 30095 ft | 480 kts | 165° |
| 2026-05-06 17:10 | -38.77723 | 145.33061 | 30455 ft | 480 kts | 165° |
| 2026-05-06 17:11 | -38.80881 | 145.34462 | 30806 ft | 480 kts | 165° |
| 2026-05-06 17:11 | -38.84034 | 145.35863 | 31143 ft | 480 kts | 165° |
| 2026-05-06 17:11 | -38.87193 | 145.37267 | 31487 ft | 480 kts | 165° |
| 2026-05-06 17:11 | -38.90349 | 145.38672 | 31861 ft | 480 kts | 165° |
| 2026-05-06 17:12 | -38.93457 | 145.40057 | 32275 ft | 478 kts | 165° |
| 2026-05-06 17:12 | -38.96600 | 145.41457 | 32637 ft | 478 kts | 165° |
| 2026-05-06 17:12 | -38.99743 | 145.42862 | 32961 ft | 479 kts | 165° |
| 2026-05-06 17:13 | -39.06044 | 145.45679 | 33048 ft | 478 kts | 165° |
| 2026-05-06 17:13 | -39.12323 | 145.48492 | 33052 ft | 478 kts | 165° |
| 2026-05-06 17:14 | -39.18597 | 145.51310 | 33044 ft | 477 kts | 165° |
| 2026-05-06 17:14 | -39.24883 | 145.54129 | 33044 ft | 481 kts | 165° |
| 2026-05-06 17:15 | -39.31207 | 145.56980 | 33035 ft | 481 kts | 165° |
| 2026-05-06 17:15 | -39.37526 | 145.59835 | 33021 ft | 481 kts | 164° |
| 2026-05-06 17:16 | -39.43846 | 145.62691 | 33026 ft | 481 kts | 164° |
| 2026-05-06 17:16 | -39.50163 | 145.65553 | 33030 ft | 481 kts | 164° |
| 2026-05-06 17:17 | -39.56478 | 145.68420 | 33029 ft | 481 kts | 165° |
| 2026-05-06 17:17 | -39.62780 | 145.71289 | 33016 ft | 479 kts | 164° |
| 2026-05-06 17:18 | -39.69119 | 145.74175 | 33000 ft | 486 kts | 165° |
| 2026-05-06 17:18 | -39.75501 | 145.77089 | 33008 ft | 486 kts | 163° |
| 2026-05-06 17:19 | -39.81855 | 145.79997 | 33004 ft | 480 kts | 164° |
| 2026-05-06 17:19 | -39.88163 | 145.82887 | 33001 ft | 484 kts | 164° |
| 2026-05-06 17:20 | -39.94531 | 145.85811 | 32995 ft | 485 kts | 164° |
| 2026-05-06 17:20 | -40.00850 | 145.88722 | 32999 ft | 484 kts | 163° |
| 2026-05-06 17:21 | -40.07141 | 145.91638 | 32988 ft | 479 kts | 163° |
| 2026-05-06 17:21 | -40.13467 | 145.94568 | 32983 ft | 484 kts | 165° |
| 2026-05-06 17:22 | -40.19810 | 145.97516 | 32985 ft | 484 kts | 164° |
| 2026-05-06 17:22 | -40.25118 | 145.99987 | 32989 ft | 481 kts | 165° |
| 2026-05-06 17:23 | -40.31363 | 146.02898 | 32977 ft | 479 kts | 163° |
| 2026-05-06 17:23 | -40.37635 | 146.05828 | 32977 ft | 479 kts | 165° |
| 2026-05-06 17:24 | -40.43908 | 146.08766 | 32974 ft | 479 kts | 164° |
| 2026-05-06 17:24 | -40.50146 | 146.11693 | 32973 ft | 474 kts | 164° |
| 2026-05-06 17:25 | -40.56395 | 146.14626 | 32974 ft | 478 kts | 163° |
| 2026-05-06 17:25 | -40.62648 | 146.17571 | 32961 ft | 477 kts | 164° |
| 2026-05-06 17:26 | -40.68899 | 146.20522 | 32960 ft | 477 kts | 163° |
| 2026-05-06 17:26 | -40.75138 | 146.23473 | 32956 ft | 477 kts | 163° |
| 2026-05-06 17:27 | -40.81337 | 146.26411 | 32956 ft | 477 kts | 163° |
| 2026-05-06 17:27 | -40.87576 | 146.29372 | 32946 ft | 477 kts | 164° |
| 2026-05-06 17:28 | -40.93824 | 146.32344 | 32948 ft | 478 kts | 163° |
| 2026-05-06 17:28 | -41.00076 | 146.35325 | 32941 ft | 477 kts | 163° |
| 2026-05-06 17:29 | -41.06325 | 146.38310 | 32941 ft | 477 kts | 163° |
| 2026-05-06 17:29 | -41.12575 | 146.41302 | 32934 ft | 477 kts | 163° |
| 2026-05-06 17:30 | -41.18753 | 146.44628 | 32933 ft | 481 kts | 155° |
| 2026-05-06 17:30 | -41.24762 | 146.48491 | 32929 ft | 479 kts | 157° |
| 2026-05-06 17:31 | -41.30789 | 146.52274 | 32936 ft | 479 kts | 157° |
| 2026-05-06 17:31 | -41.36827 | 146.56060 | 32924 ft | 483 kts | 157° |
| 2026-05-06 17:31 | -41.39863 | 146.57966 | 32794 ft | 478 kts | 157° |
| 2026-05-06 17:32 | -41.42862 | 146.59850 | 31872 ft | 477 kts | 157° |
| 2026-05-06 17:32 | -41.45859 | 146.61737 | 31135 ft | 474 kts | 157° |
| 2026-05-06 17:32 | -41.48827 | 146.63606 | 30447 ft | 470 kts | 157° |
| 2026-05-06 17:32 | -41.51776 | 146.65465 | 29652 ft | 467 kts | 157° |
| 2026-05-06 17:33 | -41.54713 | 146.67318 | 28690 ft | 466 kts | 157° |
| 2026-05-06 17:33 | -41.57653 | 146.69176 | 27562 ft | 470 kts | 157° |
| 2026-05-06 17:33 | -41.60618 | 146.71050 | 26387 ft | 475 kts | 157° |
| 2026-05-06 17:33 | -41.63617 | 146.72948 | 25270 ft | 479 kts | 156° |
| 2026-05-06 17:34 | -41.66613 | 146.74878 | 24409 ft | 476 kts | 156° |
| 2026-05-06 17:34 | -41.69592 | 146.76804 | 23387 ft | 477 kts | 156° |
| 2026-05-06 17:34 | -41.72562 | 146.78723 | 22524 ft | 470 kts | 156° |
| 2026-05-06 17:34 | -41.75484 | 146.80613 | 21711 ft | 463 kts | 156° |
| 2026-05-06 17:35 | -41.78363 | 146.82476 | 20979 ft | 456 kts | 156° |
| 2026-05-06 17:35 | -41.81195 | 146.84310 | 20286 ft | 449 kts | 156° |
| 2026-05-06 17:35 | -41.83982 | 146.86117 | 19627 ft | 441 kts | 157° |
| 2026-05-06 17:36 | -41.89416 | 146.89646 | 18361 ft | 427 kts | 157° |
| 2026-05-06 17:36 | -41.92075 | 146.91376 | 17643 ft | 421 kts | 157° |
| 2026-05-06 17:36 | -41.94695 | 146.93082 | 16902 ft | 417 kts | 157° |
| 2026-05-06 17:36 | -41.97285 | 146.94770 | 16231 ft | 411 kts | 158° |
| 2026-05-06 17:37 | -41.99801 | 146.96413 | 15589 ft | 405 kts | 156° |
| 2026-05-06 17:37 | -42.02320 | 146.98058 | 14994 ft | 399 kts | 156° |
| 2026-05-06 17:37 | -42.04792 | 146.99672 | 14472 ft | 391 kts | 158° |
| 2026-05-06 17:37 | -42.07222 | 147.01260 | 13951 ft | 385 kts | 156° |
| 2026-05-06 17:38 | -42.09608 | 147.02822 | 13501 ft | 377 kts | 157° |
| 2026-05-06 17:38 | -42.11928 | 147.04340 | 13268 ft | 364 kts | 156° |
| 2026-05-06 17:38 | -42.14158 | 147.05802 | 13118 ft | 350 kts | 157° |
| 2026-05-06 17:38 | -42.16301 | 147.07204 | 13009 ft | 335 kts | 158° |
| 2026-05-06 17:39 | -42.18470 | 147.08122 | 12669 ft | 323 kts | 174° |
| 2026-05-06 17:39 | -42.20671 | 147.08623 | 12225 ft | 320 kts | 172° |
| 2026-05-06 17:39 | -42.22852 | 147.09150 | 11829 ft | 317 kts | 172° |
| 2026-05-06 17:39 | -42.25006 | 147.09672 | 11447 ft | 312 kts | 172° |
| 2026-05-06 17:40 | -42.27139 | 147.10189 | 11013 ft | 310 kts | 173° |
| 2026-05-06 17:40 | -42.29248 | 147.10701 | 10600 ft | 307 kts | 172° |
| 2026-05-06 17:40 | -42.31338 | 147.11208 | 10234 ft | 303 kts | 172° |
| 2026-05-06 17:40 | -42.33393 | 147.11707 | 9887 ft | 298 kts | 172° |
| 2026-05-06 17:41 | -42.35423 | 147.12200 | 9512 ft | 294 kts | 172° |
| 2026-05-06 17:41 | -42.37426 | 147.12688 | 9169 ft | 290 kts | 172° |
| 2026-05-06 17:41 | -42.39369 | 147.13160 | 8821 ft | 285 kts | 173° |
| 2026-05-06 17:41 | -42.41302 | 147.13631 | 8508 ft | 280 kts | 173° |
| 2026-05-06 17:42 | -42.43196 | 147.14091 | 8221 ft | 273 kts | 173° |
| 2026-05-06 17:42 | -42.45036 | 147.14541 | 7990 ft | 265 kts | 173° |
| 2026-05-06 17:42 | -42.46833 | 147.14980 | 7733 ft | 259 kts | 173° |
| 2026-05-06 17:42 | -42.48589 | 147.15408 | 7504 ft | 254 kts | 173° |
| 2026-05-06 17:43 | -42.50308 | 147.15828 | 7251 ft | 249 kts | 173° |
| 2026-05-06 17:43 | -42.51996 | 147.16242 | 6998 ft | 244 kts | 173° |
| 2026-05-06 17:43 | -42.53598 | 147.16947 | 6739 ft | 244 kts | 158° |
| 2026-05-06 17:43 | -42.55091 | 147.17991 | 6528 ft | 239 kts | 158° |
| 2026-05-06 17:44 | -42.56560 | 147.19008 | 6287 ft | 235 kts | 158° |
| 2026-05-06 17:44 | -42.57990 | 147.20000 | 6052 ft | 227 kts | 158° |
| 2026-05-06 17:44 | -42.59370 | 147.20959 | 5808 ft | 219 kts | 159° |
| 2026-05-06 17:44 | -42.60693 | 147.21888 | 5565 ft | 210 kts | 158° |
| 2026-05-06 17:45 | -42.61935 | 147.22912 | 5387 ft | 210 kts | 153° |
| 2026-05-06 17:45 | -42.63123 | 147.24078 | 5171 ft | 211 kts | 149° |
| 2026-05-06 17:45 | -42.64259 | 147.25327 | 4857 ft | 209 kts | 146° |
| 2026-05-06 17:45 | -42.65338 | 147.26622 | 4581 ft | 202 kts | 145° |
| 2026-05-06 17:46 | -42.66330 | 147.27879 | 4282 ft | 189 kts | 143° |
| 2026-05-06 17:46 | -42.67267 | 147.29097 | 3987 ft | 186 kts | 143° |
| 2026-05-06 17:46 | -42.68175 | 147.30298 | 3759 ft | 175 kts | 143° |
| 2026-05-06 17:46 | -42.69028 | 147.31431 | 3517 ft | 169 kts | 143° |
| 2026-05-06 17:47 | -42.69859 | 147.32542 | 3264 ft | 167 kts | 142° |
| 2026-05-06 17:47 | -42.70680 | 147.33645 | 3059 ft | 163 kts | 142° |
| 2026-05-06 17:47 | -42.71473 | 147.34709 | 2927 ft | 158 kts | 142° |
| 2026-05-06 17:47 | -42.72251 | 147.35759 | 2710 ft | 157 kts | 142° |
| 2026-05-06 17:48 | -42.73022 | 147.36813 | 2664 ft | 156 kts | 142° |
| 2026-05-06 17:48 | -42.73797 | 147.37851 | 2754 ft | 158 kts | 142° |
| 2026-05-06 17:48 | -42.74581 | 147.38908 | 2713 ft | 159 kts | 142° |
| 2026-05-06 17:48 | -42.75362 | 147.39969 | 2735 ft | 159 kts | 142° |
| 2026-05-06 17:49 | -42.76133 | 147.41014 | 2739 ft | 159 kts | 142° |
| 2026-05-06 17:49 | -42.76936 | 147.42101 | 2669 ft | 166 kts | 141° |
| 2026-05-06 17:49 | -42.77758 | 147.43218 | 2703 ft | 169 kts | 141° |
| 2026-05-06 17:49 | -42.78624 | 147.44389 | 2766 ft | 182 kts | 141° |
| 2026-05-06 17:50 | -42.79544 | 147.45646 | 3136 ft | 185 kts | 140° |
| 2026-05-06 17:50 | -42.80274 | 147.47131 | 4070 ft | 210 kts | 111° |
| 2026-05-06 17:50 | -42.80149 | 147.49250 | 4768 ft | 247 kts | 69° |
| 2026-05-06 17:50 | -42.79007 | 147.51179 | 5491 ft | 274 kts | 34° |
| 2026-05-06 17:51 | -42.77225 | 147.52072 | 6680 ft | 281 kts | 2° |
| 2026-05-06 17:51 | -42.75298 | 147.51587 | 7633 ft | 287 kts | 331° |
| 2026-05-06 17:51 | -42.73475 | 147.50465 | 8860 ft | 290 kts | 337° |
| 2026-05-06 17:51 | -42.71555 | 147.49549 | 10076 ft | 294 kts | 337° |
| 2026-05-06 17:52 | -42.69575 | 147.48594 | 10887 ft | 311 kts | 338° |
| 2026-05-06 17:52 | -42.67464 | 147.47580 | 11541 ft | 332 kts | 338° |
| 2026-05-06 17:52 | -42.65224 | 147.46502 | 12097 ft | 352 kts | 338° |
| 2026-05-06 17:52 | -42.62851 | 147.45360 | 12641 ft | 370 kts | 338° |
| 2026-05-06 17:53 | -42.60385 | 147.44168 | 13328 ft | 382 kts | 338° |
| 2026-05-06 17:53 | -42.57871 | 147.42939 | 14163 ft | 386 kts | 338° |
| 2026-05-06 17:53 | -42.55335 | 147.41687 | 15028 ft | 388 kts | 338° |
| 2026-05-06 17:53 | -42.52786 | 147.40424 | 15875 ft | 391 kts | 338° |
| 2026-05-06 17:54 | -42.50230 | 147.39153 | 16718 ft | 393 kts | 338° |
| 2026-05-06 17:54 | -42.47652 | 147.37874 | 17506 ft | 396 kts | 338° |
| 2026-05-06 17:54 | -42.45052 | 147.36583 | 18271 ft | 400 kts | 337° |
| 2026-05-06 17:54 | -42.42431 | 147.35285 | 18907 ft | 402 kts | 338° |
| 2026-05-06 17:55 | -42.39797 | 147.33983 | 19648 ft | 403 kts | 338° |
| 2026-05-06 17:55 | -42.37164 | 147.32677 | 20331 ft | 405 kts | 338° |
| 2026-05-06 17:55 | -42.34504 | 147.31361 | 20966 ft | 408 kts | 339° |
| 2026-05-06 17:55 | -42.31832 | 147.30045 | 21638 ft | 409 kts | 338° |
| 2026-05-06 17:56 | -42.29185 | 147.28736 | 22246 ft | 412 kts | 339° |
| 2026-05-06 17:56 | -42.26482 | 147.27402 | 22821 ft | 416 kts | 339° |
| 2026-05-06 17:56 | -42.23756 | 147.26059 | 23407 ft | 418 kts | 339° |
| 2026-05-06 17:56 | -42.21019 | 147.24720 | 23953 ft | 418 kts | 339° |
| 2026-05-06 17:57 | -42.18296 | 147.23376 | 24584 ft | 416 kts | 339° |
| 2026-05-06 17:57 | -42.15561 | 147.22024 | 24935 ft | 422 kts | 339° |
| 2026-05-06 17:57 | -42.12792 | 147.20663 | 25342 ft | 425 kts | 339° |
| 2026-05-06 17:57 | -42.10003 | 147.19293 | 25721 ft | 429 kts | 339° |
| 2026-05-06 17:58 | -42.07185 | 147.17898 | 26040 ft | 435 kts | 338° |
| 2026-05-06 17:58 | -42.04313 | 147.16486 | 26249 ft | 444 kts | 338° |
| 2026-05-06 17:58 | -42.01390 | 147.15062 | 26580 ft | 448 kts | 338° |
| 2026-05-06 17:58 | -41.98445 | 147.13625 | 26981 ft | 452 kts | 338° |
| 2026-05-06 17:59 | -41.95494 | 147.12191 | 27563 ft | 449 kts | 338° |
| 2026-05-06 17:59 | -41.92558 | 147.10749 | 28000 ft | 451 kts | 338° |
| 2026-05-06 17:59 | -41.89592 | 147.09301 | 28375 ft | 454 kts | 338° |
| 2026-05-06 17:59 | -41.86628 | 147.07849 | 28854 ft | 454 kts | 338° |
| 2026-05-06 18:00 | -41.83658 | 147.06384 | 29214 ft | 458 kts | 338° |
| 2026-05-06 18:00 | -41.80679 | 147.04933 | 29448 ft | 464 kts | 338° |
| 2026-05-06 18:00 | -41.77638 | 147.03457 | 29843 ft | 465 kts | 338° |
| 2026-05-06 18:00 | -41.74558 | 147.01957 | 30263 ft | 465 kts | 338° |
| 2026-05-06 18:01 | -41.71517 | 147.00474 | 30654 ft | 465 kts | 338° |
| 2026-05-06 18:01 | -41.68474 | 146.98994 | 31030 ft | 465 kts | 338° |
| 2026-05-06 18:01 | -41.65427 | 146.97513 | 31423 ft | 466 kts | 338° |
| 2026-05-06 18:01 | -41.62386 | 146.96037 | 31827 ft | 466 kts | 337° |
| 2026-05-06 18:02 | -41.59317 | 146.94546 | 32049 ft | 471 kts | 338° |
| 2026-05-06 18:02 | -41.56274 | 146.93079 | 32396 ft | 472 kts | 338° |
| 2026-05-06 18:02 | -41.53184 | 146.91584 | 32823 ft | 472 kts | 338° |
| 2026-05-06 18:02 | -41.50100 | 146.90093 | 33248 ft | 471 kts | 338° |
| 2026-05-06 18:03 | -41.47028 | 146.88614 | 33758 ft | 468 kts | 337° |
| 2026-05-06 18:03 | -41.43974 | 146.87136 | 34201 ft | 466 kts | 337° |
| 2026-05-06 18:03 | -41.40934 | 146.85653 | 34553 ft | 465 kts | 336° |
| 2026-05-06 18:03 | -41.37923 | 146.84073 | 34814 ft | 467 kts | 335° |
| 2026-05-06 18:04 | -41.34887 | 146.82489 | 35102 ft | 468 kts | 336° |
| 2026-05-06 18:04 | -41.31853 | 146.80916 | 35444 ft | 468 kts | 336° |
| 2026-05-06 18:04 | -41.28817 | 146.79345 | 35790 ft | 468 kts | 336° |
| 2026-05-06 18:04 | -41.25791 | 146.77782 | 36156 ft | 466 kts | 336° |
| 2026-05-06 18:05 | -41.22775 | 146.76224 | 36592 ft | 463 kts | 335° |
| 2026-05-06 18:05 | -41.19772 | 146.74675 | 36967 ft | 462 kts | 335° |
| 2026-05-06 18:05 | -41.16777 | 146.73132 | 37281 ft | 462 kts | 335° |
| 2026-05-06 18:05 | -41.13775 | 146.71588 | 37574 ft | 463 kts | 335° |
| 2026-05-06 18:06 | -41.10777 | 146.70046 | 37902 ft | 462 kts | 335° |
| 2026-05-06 18:06 | -41.07778 | 146.68506 | 38218 ft | 462 kts | 335° |
| 2026-05-06 18:06 | -41.04784 | 146.66969 | 38531 ft | 461 kts | 335° |
| 2026-05-06 18:06 | -41.01788 | 146.65434 | 38778 ft | 461 kts | 335° |
| 2026-05-06 18:07 | -40.98807 | 146.63907 | 39046 ft | 459 kts | 335° |
| 2026-05-06 18:07 | -40.95823 | 146.62381 | 39273 ft | 459 kts | 335° |
| 2026-05-06 18:07 | -40.92842 | 146.60856 | 39472 ft | 460 kts | 335° |
| 2026-05-06 18:07 | -40.89863 | 146.59335 | 39687 ft | 459 kts | 335° |
| 2026-05-06 18:08 | -40.86881 | 146.57814 | 39908 ft | 459 kts | 335° |
| 2026-05-06 18:08 | -40.83905 | 146.56298 | 40113 ft | 458 kts | 335° |
| 2026-05-06 18:08 | -40.80972 | 146.54804 | 40303 ft | 458 kts | 335° |
| 2026-05-06 18:08 | -40.77999 | 146.53291 | 40491 ft | 458 kts | 335° |
| 2026-05-06 18:09 | -40.75031 | 146.51784 | 40726 ft | 456 kts | 335° |
| 2026-05-06 18:09 | -40.72073 | 146.50282 | 40868 ft | 457 kts | 335° |
| 2026-05-06 18:09 | -40.66145 | 146.47276 | 40953 ft | 456 kts | 335° |
| 2026-05-06 18:10 | -40.60240 | 146.44288 | 40951 ft | 455 kts | 335° |
| 2026-05-06 18:10 | -40.54328 | 146.41302 | 40945 ft | 454 kts | 335° |
| 2026-05-06 18:11 | -40.49423 | 146.38829 | 40963 ft | 455 kts | 335° |
| 2026-05-06 18:11 | -40.42509 | 146.35349 | 40961 ft | 455 kts | 335° |
| 2026-05-06 18:12 | -40.37595 | 146.32881 | 40956 ft | 455 kts | 335° |
| 2026-05-06 18:12 | -40.33634 | 146.30895 | 40730 ft | 455 kts | 335° |
| 2026-05-06 18:12 | -40.31679 | 146.29915 | 40567 ft | 455 kts | 335° |
| 2026-05-06 18:13 | -40.28724 | 146.28436 | 40351 ft | 454 kts | 334° |
| 2026-05-06 18:13 | -40.25772 | 146.26959 | 40126 ft | 455 kts | 335° |
| 2026-05-06 18:13 | -40.22810 | 146.25478 | 39915 ft | 456 kts | 335° |
| 2026-05-06 18:13 | -40.19842 | 146.23996 | 39698 ft | 457 kts | 335° |
| 2026-05-06 18:14 | -40.16873 | 146.22515 | 39480 ft | 458 kts | 335° |
| 2026-05-06 18:14 | -40.13899 | 146.21033 | 39276 ft | 458 kts | 334° |
| 2026-05-06 18:14 | -40.10918 | 146.19548 | 39061 ft | 459 kts | 335° |
| 2026-05-06 18:14 | -40.07936 | 146.18064 | 38857 ft | 458 kts | 335° |
| 2026-05-06 18:15 | -40.04954 | 146.16583 | 38643 ft | 458 kts | 334° |
| 2026-05-06 18:15 | -40.01978 | 146.15106 | 38389 ft | 458 kts | 335° |
| 2026-05-06 18:15 | -39.98997 | 146.13628 | 38122 ft | 458 kts | 335° |
| 2026-05-06 18:15 | -39.96016 | 146.12150 | 37879 ft | 458 kts | 335° |
| 2026-05-06 18:16 | -39.93032 | 146.10672 | 37634 ft | 459 kts | 334° |
| 2026-05-06 18:16 | -39.90085 | 146.09215 | 37374 ft | 461 kts | 335° |
| 2026-05-06 18:16 | -39.87081 | 146.07731 | 37123 ft | 463 kts | 335° |
| 2026-05-06 18:16 | -39.84068 | 146.06242 | 36884 ft | 462 kts | 335° |
| 2026-05-06 18:17 | -39.81061 | 146.04759 | 36651 ft | 462 kts | 335° |
| 2026-05-06 18:17 | -39.78052 | 146.03276 | 36411 ft | 463 kts | 335° |
| 2026-05-06 18:17 | -39.75035 | 146.01790 | 36182 ft | 464 kts | 335° |
| 2026-05-06 18:17 | -39.72017 | 146.00306 | 36014 ft | 464 kts | 334° |
| 2026-05-06 18:18 | -39.65951 | 145.97326 | 35996 ft | 469 kts | 334° |
| 2026-05-06 18:18 | -39.59850 | 145.94335 | 35999 ft | 469 kts | 335° |
| 2026-05-06 18:19 | -39.53751 | 145.91351 | 36010 ft | 469 kts | 335° |
| 2026-05-06 18:19 | -39.47649 | 145.88371 | 36011 ft | 469 kts | 335° |
| 2026-05-06 18:20 | -39.41541 | 145.85394 | 36014 ft | 469 kts | 335° |
| 2026-05-06 18:20 | -39.35438 | 145.82423 | 36017 ft | 469 kts | 335° |
| 2026-05-06 18:21 | -39.29329 | 145.79458 | 36021 ft | 469 kts | 335° |
| 2026-05-06 18:21 | -39.23200 | 145.76486 | 36030 ft | 472 kts | 335° |
| 2026-05-06 18:22 | -39.17095 | 145.73532 | 36022 ft | 466 kts | 335° |
| 2026-05-06 18:22 | -39.11037 | 145.70605 | 35914 ft | 462 kts | 334° |
| 2026-05-06 18:23 | -39.08063 | 145.69171 | 34945 ft | 467 kts | 335° |
| 2026-05-06 18:23 | -39.04980 | 145.67683 | 33682 ft | 480 kts | 335° |
| 2026-05-06 18:23 | -39.01866 | 145.66187 | 33031 ft | 475 kts | 335° |
| 2026-05-06 18:23 | -38.98780 | 145.64704 | 32253 ft | 473 kts | 335° |
| 2026-05-06 18:24 | -38.95703 | 145.63225 | 31433 ft | 473 kts | 334° |
| 2026-05-06 18:24 | -38.92622 | 145.61745 | 30617 ft | 473 kts | 336° |
| 2026-05-06 18:24 | -38.89534 | 145.60263 | 29680 ft | 474 kts | 335° |
| 2026-05-06 18:24 | -38.86441 | 145.58780 | 28611 ft | 475 kts | 336° |
| 2026-05-06 18:25 | -38.83340 | 145.57296 | 27578 ft | 476 kts | 335° |
| 2026-05-06 18:25 | -38.80233 | 145.55810 | 26520 ft | 477 kts | 336° |
| 2026-05-06 18:25 | -38.77126 | 145.54325 | 25501 ft | 477 kts | 336° |
| 2026-05-06 18:25 | -38.74028 | 145.52847 | 24634 ft | 473 kts | 335° |
| 2026-05-06 18:26 | -38.70958 | 145.51384 | 23781 ft | 470 kts | 335° |
| 2026-05-06 18:26 | -38.67897 | 145.49926 | 22802 ft | 467 kts | 335° |
| 2026-05-06 18:26 | -38.64869 | 145.48485 | 22009 ft | 460 kts | 335° |
| 2026-05-06 18:26 | -38.61890 | 145.47068 | 21247 ft | 453 kts | 336° |
| 2026-05-06 18:27 | -38.58955 | 145.45674 | 20505 ft | 447 kts | 336° |
| 2026-05-06 18:27 | -38.56061 | 145.44299 | 19789 ft | 441 kts | 335° |
| 2026-05-06 18:27 | -38.53245 | 145.42963 | 19096 ft | 434 kts | 336° |
| 2026-05-06 18:27 | -38.50431 | 145.41629 | 18440 ft | 428 kts | 335° |
| 2026-05-06 18:28 | -38.47654 | 145.40313 | 17652 ft | 424 kts | 335° |
| 2026-05-06 18:28 | -38.44873 | 145.38997 | 16889 ft | 419 kts | 335° |
| 2026-05-06 18:28 | -38.42189 | 145.37728 | 16206 ft | 414 kts | 335° |
| 2026-05-06 18:28 | -38.39499 | 145.36457 | 15481 ft | 411 kts | 335° |
| 2026-05-06 18:29 | -38.36836 | 145.35199 | 14869 ft | 405 kts | 335° |
| 2026-05-06 18:29 | -38.34207 | 145.33959 | 14299 ft | 400 kts | 335° |
| 2026-05-06 18:29 | -38.31615 | 145.32737 | 13736 ft | 394 kts | 335° |
| 2026-05-06 18:29 | -38.29061 | 145.31534 | 13198 ft | 388 kts | 335° |
| 2026-05-06 18:30 | -38.26552 | 145.30353 | 12721 ft | 382 kts | 335° |
| 2026-05-06 18:30 | -38.24083 | 145.29192 | 12355 ft | 373 kts | 335° |
| 2026-05-06 18:30 | -38.21688 | 145.28067 | 12045 ft | 363 kts | 335° |
| 2026-05-06 18:30 | -38.19347 | 145.26967 | 11774 ft | 353 kts | 334° |
| 2026-05-06 18:31 | -38.17071 | 145.25899 | 11526 ft | 344 kts | 334° |
| 2026-05-06 18:31 | -38.14858 | 145.24861 | 11327 ft | 334 kts | 334° |
| 2026-05-06 18:31 | -38.12703 | 145.23850 | 10984 ft | 329 kts | 334° |
| 2026-05-06 18:31 | -38.10522 | 145.22829 | 10296 ft | 339 kts | 334° |
| 2026-05-06 18:32 | -38.08290 | 145.21784 | 9688 ft | 342 kts | 334° |
| 2026-05-06 18:32 | -38.06065 | 145.20744 | 9230 ft | 339 kts | 334° |
| 2026-05-06 18:32 | -38.03853 | 145.19708 | 8729 ft | 338 kts | 334° |
| 2026-05-06 18:32 | -38.01657 | 145.18683 | 8271 ft | 332 kts | 334° |
| 2026-05-06 18:33 | -37.99525 | 145.17688 | 7730 ft | 321 kts | 334° |
| 2026-05-06 18:33 | -37.97459 | 145.16724 | 7188 ft | 312 kts | 334° |
| 2026-05-06 18:33 | -37.95448 | 145.15786 | 6700 ft | 303 kts | 334° |
| 2026-05-06 18:33 | -37.93505 | 145.14881 | 6322 ft | 291 kts | 333° |
| 2026-05-06 18:34 | -37.91647 | 145.14015 | 6005 ft | 279 kts | 333° |
| 2026-05-06 18:34 | -37.89863 | 145.13185 | 5707 ft | 267 kts | 333° |
| 2026-05-06 18:34 | -37.88173 | 145.12398 | 5429 ft | 257 kts | 333° |
| 2026-05-06 18:34 | -37.86520 | 145.11628 | 5154 ft | 253 kts | 332° |
| 2026-05-06 18:35 | -37.84830 | 145.10842 | 4882 ft | 262 kts | 333° |
| 2026-05-06 18:35 | -37.83105 | 145.10041 | 4616 ft | 264 kts | 333° |
| 2026-05-06 18:35 | -37.81404 | 145.09251 | 4468 ft | 256 kts | 332° |
| 2026-05-06 18:35 | -37.79750 | 145.08485 | 4254 ft | 252 kts | 332° |
| 2026-05-06 18:36 | -37.78101 | 145.07719 | 3964 ft | 251 kts | 333° |
| 2026-05-06 18:36 | -37.76492 | 145.06973 | 3848 ft | 242 kts | 332° |
| 2026-05-06 18:36 | -37.74944 | 145.06257 | 3733 ft | 232 kts | 332° |
| 2026-05-06 18:36 | -37.73461 | 145.05570 | 3645 ft | 222 kts | 332° |
| 2026-05-06 18:37 | -37.72043 | 145.04914 | 3561 ft | 212 kts | 331° |
| 2026-05-06 18:37 | -37.70690 | 145.04287 | 3482 ft | 203 kts | 331° |
| 2026-05-06 18:37 | -37.69449 | 145.03541 | 3252 ft | 193 kts | 317° |
| 2026-05-06 18:37 | -37.68518 | 145.02492 | 3217 ft | 166 kts | 299° |
| 2026-05-06 18:38 | -37.67898 | 145.01368 | 3122 ft | 150 kts | 290° |
| 2026-05-06 18:38 | -37.67437 | 145.00223 | 2870 ft | 143 kts | 281° |
| 2026-05-06 18:38 | -37.67129 | 144.99090 | 2609 ft | 131 kts | 275° |
| 2026-05-06 18:38 | -37.66972 | 144.98025 | 2350 ft | 117 kts | 266° |
| 2026-05-06 18:39 | -37.66904 | 144.97015 | 2155 ft | 115 kts | 265° |
| 2026-05-06 18:39 | -37.66874 | 144.96007 | 1963 ft | 115 kts | 264° |
| 2026-05-06 18:39 | -37.66838 | 144.95000 | 1865 ft | 115 kts | 265° |
| 2026-05-06 18:40 | -37.66701 | 144.92962 | 1611 ft | 117 kts | 267° |
| 2026-05-06 18:40 | -37.66656 | 144.91937 | 1432 ft | 119 kts | 267° |
| 2026-05-06 18:40 | -37.66615 | 144.90892 | 1283 ft | 120 kts | 269° |
| 2026-05-06 18:40 | -37.66556 | 144.89851 | 1104 ft | 117 kts | 272° |
| 2026-05-06 18:41 | -37.66483 | 144.88832 | 966 ft | 114 kts | 273° |
| 2026-05-06 18:41 | -37.66422 | 144.87829 | 829 ft | 116 kts | 272° |
| 2026-05-06 18:41 | -37.66354 | 144.86748 | 729 ft | 127 kts | 274° |
| 2026-05-06 18:41 | -37.66282 | 144.85631 | 567 ft | 127 kts | 274° |
| 2026-05-06 18:42 | -37.66218 | 144.84575 | 436 ft | 116 kts | 274° |
| 2026-05-06 18:42 | -37.66164 | 144.83649 | 418 ft | 89 kts | 275° |
| 2026-05-06 18:42 | -37.66142 | 144.83070 | 411 ft | 51 kts | 262° |
| 2026-05-06 18:42 | -37.66250 | 144.82744 | 396 ft | 28 kts | 233° |
| 2026-05-06 18:43 | -37.66420 | 144.82733 | 389 ft | 29 kts | 126° |
| 2026-05-06 18:43 | -37.66455 | 144.82987 | 391 ft | 30 kts | 96° |
| 2026-05-06 18:43 | -37.66471 | 144.83243 | 402 ft | 29 kts | 93° |
| 2026-05-06 18:43 | -37.66486 | 144.83502 | 406 ft | 30 kts | 94° |
| 2026-05-06 18:44 | -37.66503 | 144.83781 | 406 ft | 33 kts | 95° |
| 2026-05-06 18:44 | -37.66635 | 144.83955 | 400 ft | 33 kts | 170° |
| 2026-05-06 18:44 | -37.66860 | 144.83998 | 392 ft | 35 kts | 174° |
| 2026-05-06 18:44 | -37.67114 | 144.84043 | 384 ft | 36 kts | 171° |
| 2026-05-06 18:45 | -37.67222 | 144.84152 | 382 ft | 20 kts | 90° |
| 2026-05-06 18:45 | -37.67207 | 144.84310 | 385 ft | 17 kts | 82° |
| 2026-05-06 18:45 | -37.67197 | 144.84448 | 387 ft | 14 kts | 96° |
| 2026-05-06 18:45 | -37.67208 | 144.84524 | 388 ft | 13 kts | 96° |
| 2026-05-06 18:46 | -37.67228 | 144.84605 | 388 ft | 5 kts | 169° |
| 2026-05-06 18:46 | -37.67265 | 144.84612 | 388 ft | 6 kts | 171° |
| 2026-05-06 18:46 | -37.67270 | 144.84613 | 387 ft | 0 kts | 171° |